<?xml version='1.0' encoding='UTF-8'?><gpx version="1.1" creator="JPX - https://github.com/jenetics/jpx" xmlns="http://www.topografix.com/GPX/1/1"><trk><trkseg><trkpt lat="45.72280178121168" lon="9.746296523075545"><ele>312.0</ele><time>2026-04-26T13:41:24.998Z</time></trkpt><trkpt lat="45.72272695454671" lon="9.74630913035388"><ele>314.0</ele><time>2026-04-26T13:41:35.999Z</time></trkpt><trkpt lat="45.72268934010253" lon="9.746382841698688"><ele>316.0</ele><time>2026-04-26T13:41:40.999Z</time></trkpt><trkpt lat="45.72264941960654" lon="9.746453993071789"><ele>318.0</ele><time>2026-04-26T13:41:46.999Z</time></trkpt><trkpt lat="45.72261725300696" lon="9.746531805714417"><ele>320.0</ele><time>2026-04-26T13:41:54.999Z</time></trkpt><trkpt lat="45.72254114837476" lon="9.746550569916954"><ele>322.0</ele><time>2026-04-26T13:42:03.999Z</time></trkpt><trkpt lat="45.72247723392779" lon="9.746561236437888"><ele>324.0</ele><time>2026-04-26T13:42:12.999Z</time></trkpt><trkpt lat="45.722400177436946" lon="9.746584582675354"><ele>324.0</ele><time>2026-04-26T13:42:21.999Z</time></trkpt><trkpt lat="45.72235097041219" lon="9.746647623688697"><ele>324.0</ele><time>2026-04-26T13:43:02.999Z</time></trkpt><trkpt lat="45.72228727408158" lon="9.746635932384859"><ele>324.0</ele><time>2026-04-26T13:43:06.999Z</time></trkpt><trkpt lat="45.72221587454267" lon="9.746669715415955"><ele>324.0</ele><time>2026-04-26T13:43:15.999Z</time></trkpt><trkpt lat="45.72213147788532" lon="9.746668933495151"><ele>324.0</ele><time>2026-04-26T13:43:26Z</time></trkpt><trkpt lat="45.72206071487389" lon="9.746646535379773"><ele>324.0</ele><time>2026-04-26T13:43:33Z</time></trkpt><trkpt lat="45.72198838829176" lon="9.746623262841732"><ele>324.0</ele><time>2026-04-26T13:43:37Z</time></trkpt><trkpt lat="45.72191924737739" lon="9.746625415884058"><ele>325.14285714285717</ele><time>2026-04-26T13:43:45Z</time></trkpt><trkpt lat="45.72186891105954" lon="9.746681516277198"><ele>326.2857142857143</ele><time>2026-04-26T13:43:49Z</time></trkpt><trkpt lat="45.72180896146574" lon="9.74672934020759"><ele>327.42857142857144</ele><time>2026-04-26T13:44:05Z</time></trkpt><trkpt lat="45.721740148549436" lon="9.74673837744049"><ele>328.57142857142856</ele><time>2026-04-26T13:44:09Z</time></trkpt><trkpt lat="45.721678059377275" lon="9.746753922373344"><ele>329.7142857142857</ele><time>2026-04-26T13:44:16Z</time></trkpt><trkpt lat="45.721643056205764" lon="9.746837230971732"><ele>330.85714285714283</ele><time>2026-04-26T13:44:25.999Z</time></trkpt><trkpt lat="45.72158514573487" lon="9.746895560020352"><ele>332.0</ele><time>2026-04-26T13:44:34.999Z</time></trkpt><trkpt lat="45.721552498515706" lon="9.746984983275693"><ele>332.0</ele><time>2026-04-26T13:44:39.999Z</time></trkpt><trkpt lat="45.72150688855307" lon="9.747050502160377"><ele>332.0</ele><time>2026-04-26T13:44:45.999Z</time></trkpt><trkpt lat="45.72146757948403" lon="9.747126680271933"><ele>332.0</ele><time>2026-04-26T13:44:54.999Z</time></trkpt><trkpt lat="45.72140573074791" lon="9.747159595435994"><ele>332.0</ele><time>2026-04-26T13:45:02.999Z</time></trkpt><trkpt lat="45.721344873115974" lon="9.747236355277066"><ele>332.0</ele><time>2026-04-26T13:45:10.999Z</time></trkpt><trkpt lat="45.72129545765238" lon="9.747305769735702"><ele>332.0</ele><time>2026-04-26T13:45:18.999Z</time></trkpt><trkpt lat="45.721232988545" lon="9.747369740522219"><ele>332.0</ele><time>2026-04-26T13:45:26Z</time></trkpt><trkpt lat="45.7211714866194" lon="9.747426142078504"><ele>332.0</ele><time>2026-04-26T13:45:34Z</time></trkpt><trkpt lat="45.72112021546638" lon="9.747480636242077"><ele>332.0</ele><time>2026-04-26T13:45:40Z</time></trkpt><trkpt lat="45.72106862963185" lon="9.74753666921778"><ele>332.0</ele><time>2026-04-26T13:45:46Z</time></trkpt><trkpt lat="45.72100790701754" lon="9.747590799077297"><ele>332.0</ele><time>2026-04-26T13:45:54Z</time></trkpt><trkpt lat="45.72094183799536" lon="9.747634730292804"><ele>332.0</ele><time>2026-04-26T13:46:02Z</time></trkpt><trkpt lat="45.7208986132841" lon="9.747701897930657"><ele>332.0</ele><time>2026-04-26T13:46:08Z</time></trkpt><trkpt lat="45.72087439257418" lon="9.747786359693212"><ele>332.0</ele><time>2026-04-26T13:46:14Z</time></trkpt><trkpt lat="45.72081961915348" lon="9.747841003030878"><ele>331.7142857142857</ele><time>2026-04-26T13:46:20Z</time></trkpt><trkpt lat="45.7207599945803" lon="9.747889353899035"><ele>331.42857142857144</ele><time>2026-04-26T13:46:26Z</time></trkpt><trkpt lat="45.72069801347978" lon="9.747915826606146"><ele>331.14285714285717</ele><time>2026-04-26T13:46:33Z</time></trkpt><trkpt lat="45.720636663335995" lon="9.747937009842863"><ele>330.8571428571429</ele><time>2026-04-26T13:46:40.999Z</time></trkpt><trkpt lat="45.72057029657024" lon="9.747969084664192"><ele>330.57142857142856</ele><time>2026-04-26T13:46:47.999Z</time></trkpt><trkpt lat="45.72050398316661" lon="9.747997517281474"><ele>330.28571428571433</ele><time>2026-04-26T13:46:55.999Z</time></trkpt><trkpt lat="45.72044236594428" lon="9.748040461152408"><ele>330.0</ele><time>2026-04-26T13:47:25.999Z</time></trkpt><trkpt lat="45.720384475863554" lon="9.748078056448064"><ele>330.00000000000006</ele><time>2026-04-26T13:47:34Z</time></trkpt><trkpt lat="45.72031358008999" lon="9.748047708922577"><ele>330.0</ele><time>2026-04-26T13:47:42Z</time></trkpt><trkpt lat="45.72026036606849" lon="9.748099076988408"><ele>330.0</ele><time>2026-04-26T13:48:09Z</time></trkpt><trkpt lat="45.72020112015598" lon="9.748055740233939"><ele>330.0</ele><time>2026-04-26T13:48:15Z</time></trkpt><trkpt lat="45.72014496649638" lon="9.748098792337665"><ele>330.0</ele><time>2026-04-26T13:49:46Z</time></trkpt><trkpt lat="45.72012543797743" lon="9.748184679541149"><ele>330.00000000000006</ele><time>2026-04-26T13:49:52Z</time></trkpt><trkpt lat="45.72011510251097" lon="9.748276740331926"><ele>330.0</ele><time>2026-04-26T13:49:57Z</time></trkpt><trkpt lat="45.72011530152476" lon="9.748385698335074"><ele>333.5714285714286</ele><time>2026-04-26T13:50:03Z</time></trkpt><trkpt lat="45.720079993929225" lon="9.748472153311194"><ele>337.14285714285717</ele><time>2026-04-26T13:50:08Z</time></trkpt><trkpt lat="45.720120937727074" lon="9.748561056415793"><ele>340.7142857142857</ele><time>2026-04-26T13:50:19Z</time></trkpt><trkpt lat="45.72013685695507" lon="9.748665964427602"><ele>344.28571428571433</ele><time>2026-04-26T13:50:35Z</time></trkpt><trkpt lat="45.7201138899833" lon="9.74875423076965"><ele>347.8571428571429</ele><time>2026-04-26T13:50:39Z</time></trkpt><trkpt lat="45.72008849460035" lon="9.748850238731787"><ele>351.42857142857144</ele><time>2026-04-26T13:50:50Z</time></trkpt><trkpt lat="45.72007027345363" lon="9.748953784648354"><ele>355.0</ele><time>2026-04-26T13:50:59Z</time></trkpt><trkpt lat="45.720064772465086" lon="9.749066935255618"><ele>355.0</ele><time>2026-04-26T13:51:07.999Z</time></trkpt><trkpt lat="45.72002832160046" lon="9.7491520224559"><ele>355.0</ele><time>2026-04-26T13:51:14.999Z</time></trkpt><trkpt lat="45.72001522042038" lon="9.74924867460351"><ele>355.0</ele><time>2026-04-26T13:51:36.999Z</time></trkpt><trkpt lat="45.719981955439636" lon="9.749326457919382"><ele>355.0</ele><time>2026-04-26T13:53:31.999Z</time></trkpt><trkpt lat="45.71995703989916" lon="9.74941742979561"><ele>355.0</ele><time>2026-04-26T13:53:38.999Z</time></trkpt><trkpt lat="45.71993087420653" lon="9.749562335674092"><ele>355.0</ele><time>2026-04-26T13:54:26Z</time></trkpt><trkpt lat="45.71992864737415" lon="9.749662384439112"><ele>355.0</ele><time>2026-04-26T13:54:33Z</time></trkpt><trkpt lat="45.719927151302805" lon="9.749754870290706"><ele>354.42857142857144</ele><time>2026-04-26T13:54:40Z</time></trkpt><trkpt lat="45.7199148475973" lon="9.749852444897222"><ele>353.8571428571429</ele><time>2026-04-26T13:54:55Z</time></trkpt><trkpt lat="45.71989090588048" lon="9.749941169740383"><ele>353.28571428571433</ele><time>2026-04-26T13:55:00.999Z</time></trkpt><trkpt lat="45.71985945663591" lon="9.750025571451404"><ele>352.7142857142857</ele><time>2026-04-26T13:55:14.999Z</time></trkpt><trkpt lat="45.71982676663386" lon="9.750111144910555"><ele>352.14285714285717</ele><time>2026-04-26T13:55:25.999Z</time></trkpt><trkpt lat="45.71981754077445" lon="9.750203242288666"><ele>351.5714285714286</ele><time>2026-04-26T13:55:32.999Z</time></trkpt><trkpt lat="45.719809194266716" lon="9.750081422383246"><ele>351.0</ele><time>2026-04-26T14:07:59.999Z</time></trkpt><trkpt lat="45.71986143620485" lon="9.7500178499662"><ele>351.00000000000006</ele><time>2026-04-26T14:08:10.999Z</time></trkpt><trkpt lat="45.71989783582347" lon="9.749938675703579"><ele>351.0</ele><time>2026-04-26T14:08:19.999Z</time></trkpt><trkpt lat="45.71990521421963" lon="9.749840363761402"><ele>351.0</ele><time>2026-04-26T14:08:27.999Z</time></trkpt><trkpt lat="45.71991706502786" lon="9.749744544180558"><ele>351.0</ele><time>2026-04-26T14:08:36Z</time></trkpt><trkpt lat="45.719921278916" lon="9.749652093032788"><ele>351.0</ele><time>2026-04-26T14:08:43Z</time></trkpt><trkpt lat="45.71994586486158" lon="9.749561256596497"><ele>351.00000000000006</ele><time>2026-04-26T14:08:50Z</time></trkpt><trkpt lat="45.719956697317926" lon="9.74946171077263"><ele>351.0</ele><time>2026-04-26T14:08:58Z</time></trkpt><trkpt lat="45.71998218186949" lon="9.749364038264371"><ele>351.5714285714286</ele><time>2026-04-26T14:09:07Z</time></trkpt><trkpt lat="45.72001119076806" lon="9.749265117815577"><ele>352.14285714285717</ele><time>2026-04-26T14:09:27Z</time></trkpt><trkpt lat="45.72001734371202" lon="9.749163114428216"><ele>352.7142857142857</ele><time>2026-04-26T14:09:35.999Z</time></trkpt><trkpt lat="45.72003832157312" lon="9.749076625142882"><ele>353.28571428571433</ele><time>2026-04-26T14:09:42.999Z</time></trkpt><trkpt lat="45.72004271551829" lon="9.748962682113628"><ele>353.8571428571429</ele><time>2026-04-26T14:09:48.999Z</time></trkpt><trkpt lat="45.72006122209808" lon="9.748865722401046"><ele>354.42857142857144</ele><time>2026-04-26T14:09:55.999Z</time></trkpt><trkpt lat="45.720084718166554" lon="9.748775084881313"><ele>355.0</ele><time>2026-04-26T14:10:03.999Z</time></trkpt><trkpt lat="45.72010085795329" lon="9.7486776478282"><ele>355.0</ele><time>2026-04-26T14:10:12.999Z</time></trkpt><trkpt lat="45.72010547822041" lon="9.748582842460387"><ele>355.0</ele><time>2026-04-26T14:10:19.999Z</time></trkpt><trkpt lat="45.72011286442264" lon="9.748490780202358"><ele>355.0</ele><time>2026-04-26T14:10:28.999Z</time></trkpt><trkpt lat="45.72010567271245" lon="9.748388744082098"><ele>355.0</ele><time>2026-04-26T14:10:37Z</time></trkpt><trkpt lat="45.720105586156635" lon="9.748292527712142"><ele>355.0</ele><time>2026-04-26T14:10:45Z</time></trkpt><trkpt lat="45.72010786592011" lon="9.748199934706872"><ele>355.0</ele><time>2026-04-26T14:10:51Z</time></trkpt><trkpt lat="45.72011764430015" lon="9.748098241371324"><ele>355.0</ele><time>2026-04-26T14:10:58Z</time></trkpt><trkpt lat="45.72017339743595" lon="9.748037637692358"><ele>351.42857142857144</ele><time>2026-04-26T14:11:05Z</time></trkpt><trkpt lat="45.720246692433435" lon="9.748045746263458"><ele>347.8571428571429</ele><time>2026-04-26T14:11:11Z</time></trkpt><trkpt lat="45.72032371084169" lon="9.748043944897542"><ele>344.28571428571433</ele><time>2026-04-26T14:11:19Z</time></trkpt><trkpt lat="45.72040013317823" lon="9.748026230238953"><ele>340.7142857142857</ele><time>2026-04-26T14:11:28Z</time></trkpt><trkpt lat="45.7204746536448" lon="9.748021358456901"><ele>337.14285714285717</ele><time>2026-04-26T14:11:33.999Z</time></trkpt><trkpt lat="45.72053560826378" lon="9.747980631340074"><ele>333.5714285714286</ele><time>2026-04-26T14:11:41.999Z</time></trkpt><trkpt lat="45.7205963273257" lon="9.747954483867767"><ele>330.0</ele><time>2026-04-26T14:11:47.999Z</time></trkpt><trkpt lat="45.7206619693577" lon="9.747905348594458"><ele>330.00000000000006</ele><time>2026-04-26T14:11:52.999Z</time></trkpt><trkpt lat="45.72073126159096" lon="9.747891462369882"><ele>330.0</ele><time>2026-04-26T14:11:59.999Z</time></trkpt><trkpt lat="45.72078164370987" lon="9.747833255250244"><ele>330.0</ele><time>2026-04-26T14:12:25.999Z</time></trkpt><trkpt lat="45.72084261387185" lon="9.747797401637596"><ele>330.0</ele><time>2026-04-26T14:12:32.999Z</time></trkpt><trkpt lat="45.720890992017175" lon="9.747731264280468"><ele>330.0</ele><time>2026-04-26T14:12:38.999Z</time></trkpt><trkpt lat="45.720940950124216" lon="9.747670886343757"><ele>330.00000000000006</ele><time>2026-04-26T14:12:45Z</time></trkpt><trkpt lat="45.720999138408466" lon="9.747634489976885"><ele>330.0</ele><time>2026-04-26T14:12:50Z</time></trkpt><trkpt lat="45.72105408943102" lon="9.74757347344852"><ele>330.28571428571433</ele><time>2026-04-26T14:12:57Z</time></trkpt><trkpt lat="45.72110868864502" lon="9.747516016726502"><ele>330.57142857142856</ele><time>2026-04-26T14:13:03Z</time></trkpt><trkpt lat="45.72116142617547" lon="9.747447084154095"><ele>330.8571428571429</ele><time>2026-04-26T14:13:11Z</time></trkpt><trkpt lat="45.72121480641456" lon="9.747383633602915"><ele>331.14285714285717</ele><time>2026-04-26T14:13:18Z</time></trkpt><trkpt lat="45.721273839879615" lon="9.747327595680023"><ele>331.42857142857144</ele><time>2026-04-26T14:13:24Z</time></trkpt><trkpt lat="45.72131983662253" lon="9.74725548921375"><ele>331.7142857142857</ele><time>2026-04-26T14:13:31Z</time></trkpt><trkpt lat="45.72137987088093" lon="9.747220315976344"><ele>332.0</ele><time>2026-04-26T14:13:35.999Z</time></trkpt><trkpt lat="45.7214336001001" lon="9.747145238945782"><ele>332.0</ele><time>2026-04-26T14:13:43.999Z</time></trkpt><trkpt lat="45.721479630718676" lon="9.747071236874337"><ele>332.0</ele><time>2026-04-26T14:13:50.999Z</time></trkpt><trkpt lat="45.72151515553377" lon="9.746990346534021"><ele>332.0</ele><time>2026-04-26T14:13:58.999Z</time></trkpt><trkpt lat="45.72156401119048" lon="9.746918213484342"><ele>332.0</ele><time>2026-04-26T14:14:05.999Z</time></trkpt><trkpt lat="45.721607241428366" lon="9.746845723161542"><ele>332.0</ele><time>2026-04-26T14:14:11.999Z</time></trkpt><trkpt lat="45.72165017781859" lon="9.74676130833925"><ele>332.0</ele><time>2026-04-26T14:14:18.999Z</time></trkpt><trkpt lat="45.72169096895545" lon="9.746689771173969"><ele>332.0</ele><time>2026-04-26T14:14:24.999Z</time></trkpt><trkpt lat="45.721754151920614" lon="9.746646579166896"><ele>330.85714285714283</ele><time>2026-04-26T14:14:31.999Z</time></trkpt><trkpt lat="45.721818561202575" lon="9.746616563771235"><ele>329.7142857142857</ele><time>2026-04-26T14:14:39.999Z</time></trkpt><trkpt lat="45.721881767929084" lon="9.746596386055211"><ele>328.57142857142856</ele><time>2026-04-26T14:14:49Z</time></trkpt><trkpt lat="45.72189649495558" lon="9.746695567042273"><ele>327.42857142857144</ele><time>2026-04-26T14:15:08Z</time></trkpt><trkpt lat="45.721956416032086" lon="9.746614196822977"><ele>326.2857142857143</ele><time>2026-04-26T14:15:33.999Z</time></trkpt><trkpt lat="45.72202065142042" lon="9.746608096463078"><ele>325.14285714285717</ele><time>2026-04-26T14:15:42.999Z</time></trkpt><trkpt lat="45.72208534294571" lon="9.746601624930719"><ele>324.0</ele><time>2026-04-26T14:15:48.999Z</time></trkpt><trkpt lat="45.72215964686516" lon="9.746592185064577"><ele>324.0</ele><time>2026-04-26T14:15:55.999Z</time></trkpt><trkpt lat="45.72222757097523" lon="9.746584204000362"><ele>324.0</ele><time>2026-04-26T14:16:02.999Z</time></trkpt><trkpt lat="45.72231044511605" lon="9.74657759591579"><ele>324.0</ele><time>2026-04-26T14:16:11.999Z</time></trkpt><trkpt lat="45.72237403865525" lon="9.746563310787453"><ele>324.0</ele><time>2026-04-26T14:16:17.999Z</time></trkpt><trkpt lat="45.722449995186636" lon="9.746571318594098"><ele>324.0</ele><time>2026-04-26T14:16:25.999Z</time></trkpt><trkpt lat="45.72252073520622" lon="9.746559720268154"><ele>324.0</ele><time>2026-04-26T14:16:31.999Z</time></trkpt><trkpt lat="45.72258018597184" lon="9.746521139825765"><ele>324.0</ele><time>2026-04-26T14:16:37.999Z</time></trkpt><trkpt lat="45.722623546279486" lon="9.746451295235454"><ele>324.0</ele><time>2026-04-26T14:16:43.999Z</time></trkpt><trkpt lat="45.7226704722741" lon="9.746376545723333"><ele>324.0</ele><time>2026-04-26T14:16:50.999Z</time></trkpt><trkpt lat="45.722721785129814" lon="9.746308996447967"><ele>324.0</ele><time>2026-04-26T14:16:57Z</time></trkpt><trkpt lat="45.72278340948241" lon="9.746252566801108"><ele>324.0</ele><time>2026-04-26T14:17:03Z</time></trkpt><trkpt lat="45.72287314328951" lon="9.74618861386682"><ele>324.0</ele><time>2026-04-26T14:17:19Z</time></trkpt><trkpt lat="45.72290906864178" lon="9.746111455051473"><ele>324.0</ele><time>2026-04-26T14:17:49.999Z</time></trkpt><trkpt lat="45.72295004817694" lon="9.746037320112361"><ele>324.0</ele><time>2026-04-26T14:17:58.999Z</time></trkpt><trkpt lat="45.7230305608052" lon="9.746065585009877"><ele>310.0</ele><time>2026-04-26T14:18:35.999Z</time></trkpt><trkpt lat="45.72306385692164" lon="9.745976717778959"><ele>317.0</ele><time>2026-04-26T14:18:54.999Z</time></trkpt></trkseg></trk></gpx>